sensor_id;sensor_type;location;lat;lon;timestamp;P1;durP1;ratioP1;P2;durP2;ratioP2
18623;SDS011;9441;51.420;7.036;2022-10-16T00:00:37;8.23;;;3.90;;
18623;SDS011;9441;51.420;7.036;2022-10-16T00:01:39;6.30;;;3.50;;
18623;SDS011;9441;51.420;7.036;2022-10-16T00:02:41;10.80;;;3.73;;
18623;SDS011;9441;51.420;7.036;2022-10-16T00:03:44;15.33;;;3.93;;
18623;SDS011;9441;51.420;7.036;2022-10-16T00:04:46;9.40;;;3.70;;
18623;SDS011;9441;51.420;7.036;2022-10-16T00:05:47;11.17;;;3.80;;
18623;SDS011;9441;51.420;7.036;2022-10-16T00:06:49;9.37;;;3.60;;
18623;SDS011;9441;51.420;7.036;2022-10-16T00:07:58;12.07;;;3.50;;
18623;SDS011;9441;51.420;7.036;2022-10-16T00:09:10;8.97;;;3.37;;
18623;SDS011;9441;51.420;7.036;2022-10-16T00:10:12;8.17;;;3.87;;
18623;SDS011;9441;51.420;7.036;2022-10-16T00:11:14;10.40;;;3.63;;
18623;SDS011;9441;51.420;7.036;2022-10-16T00:12:17;9.43;;;3.60;;
18623;SDS011;9441;51.420;7.036;2022-10-16T00:13:18;8.63;;;3.77;;
18623;SDS011;9441;51.420;7.036;2022-10-16T00:14:21;11.57;;;3.57;;
18623;SDS011;9441;51.420;7.036;2022-10-16T00:15:22;5.23;;;3.27;;
18623;SDS011;9441;51.420;7.036;2022-10-16T00:16:24;5.67;;;3.10;;
18623;SDS011;9441;51.420;7.036;2022-10-16T00:17:26;9.33;;;3.60;;
18623;SDS011;9441;51.420;7.036;2022-10-16T00:18:28;6.47;;;3.40;;
18623;SDS011;9441;51.420;7.036;2022-10-16T00:19:31;7.17;;;3.30;;
18623;SDS011;9441;51.420;7.036;2022-10-16T00:20:33;7.97;;;3.30;;
18623;SDS011;9441;51.420;7.036;2022-10-16T00:21:54;5.63;;;2.90;;
18623;SDS011;9441;51.420;7.036;2022-10-16T00:23:14;6.60;;;3.20;;
18623;SDS011;9441;51.420;7.036;2022-10-16T00:24:15;6.10;;;3.27;;
18623;SDS011;9441;51.420;7.036;2022-10-16T00:25:17;13.73;;;3.13;;
18623;SDS011;9441;51.420;7.036;2022-10-16T00:26:19;5.73;;;3.07;;
18623;SDS011;9441;51.420;7.036;2022-10-16T00:27:21;12.90;;;3.10;;
18623;SDS011;9441;51.420;7.036;2022-10-16T00:28:22;10.50;;;3.10;;
18623;SDS011;9441;51.420;7.036;2022-10-16T00:29:24;9.13;;;3.40;;
18623;SDS011;9441;51.420;7.036;2022-10-16T00:30:25;10.07;;;2.93;;
18623;SDS011;9441;51.420;7.036;2022-10-16T00:31:28;7.07;;;3.03;;
18623;SDS011;9441;51.420;7.036;2022-10-16T00:32:29;8.33;;;3.10;;
18623;SDS011;9441;51.420;7.036;2022-10-16T00:33:31;5.20;;;2.70;;
18623;SDS011;9441;51.420;7.036;2022-10-16T00:34:34;11.70;;;3.37;;
18623;SDS011;9441;51.420;7.036;2022-10-16T00:35:36;9.60;;;2.90;;
18623;SDS011;9441;51.420;7.036;2022-10-16T00:36:37;8.83;;;2.63;;
18623;SDS011;9441;51.420;7.036;2022-10-16T00:37:39;7.90;;;2.80;;
18623;SDS011;9441;51.420;7.036;2022-10-16T00:38:40;7.50;;;2.97;;
18623;SDS011;9441;51.420;7.036;2022-10-16T00:39:42;5.13;;;2.60;;
18623;SDS011;9441;51.420;7.036;2022-10-16T00:40:44;8.73;;;2.57;;
18623;SDS011;9441;51.420;7.036;2022-10-16T00:41:45;6.47;;;2.40;;
18623;SDS011;9441;51.420;7.036;2022-10-16T00:42:46;10.37;;;2.90;;
18623;SDS011;9441;51.420;7.036;2022-10-16T00:43:49;8.50;;;3.03;;
18623;SDS011;9441;51.420;7.036;2022-10-16T00:44:53;6.80;;;2.77;;
18623;SDS011;9441;51.420;7.036;2022-10-16T00:45:57;6.67;;;2.80;;
18623;SDS011;9441;51.420;7.036;2022-10-16T00:46:58;10.60;;;3.03;;
18623;SDS011;9441;51.420;7.036;2022-10-16T00:48:00;6.53;;;2.70;;
18623;SDS011;9441;51.420;7.036;2022-10-16T00:49:02;6.40;;;2.80;;
18623;SDS011;9441;51.420;7.036;2022-10-16T00:50:08;7.23;;;2.50;;
18623;SDS011;9441;51.420;7.036;2022-10-16T00:51:12;10.77;;;3.23;;
18623;SDS011;9441;51.420;7.036;2022-10-16T00:52:15;5.27;;;2.93;;
18623;SDS011;9441;51.420;7.036;2022-10-16T00:53:16;11.47;;;3.10;;
18623;SDS011;9441;51.420;7.036;2022-10-16T00:54:19;5.47;;;2.57;;
18623;SDS011;9441;51.420;7.036;2022-10-16T00:55:23;8.03;;;2.93;;
18623;SDS011;9441;51.420;7.036;2022-10-16T00:56:26;4.83;;;2.67;;
18623;SDS011;9441;51.420;7.036;2022-10-16T00:57:27;7.83;;;2.60;;
18623;SDS011;9441;51.420;7.036;2022-10-16T00:58:29;7.17;;;2.47;;
18623;SDS011;9441;51.420;7.036;2022-10-16T00:59:31;6.20;;;2.60;;
18623;SDS011;9441;51.420;7.036;2022-10-16T01:00:35;6.07;;;2.50;;
18623;SDS011;9441;51.420;7.036;2022-10-16T01:01:36;4.00;;;2.37;;
18623;SDS011;9441;51.420;7.036;2022-10-16T01:02:38;9.07;;;2.40;;
18623;SDS011;9441;51.420;7.036;2022-10-16T01:03:39;5.93;;;2.60;;
18623;SDS011;9441;51.420;7.036;2022-10-16T01:04:42;5.47;;;2.53;;
18623;SDS011;9441;51.420;7.036;2022-10-16T01:05:49;5.23;;;2.60;;
18623;SDS011;9441;51.420;7.036;2022-10-16T01:07:00;6.27;;;2.27;;
18623;SDS011;9441;51.420;7.036;2022-10-16T01:08:08;3.70;;;2.10;;
18623;SDS011;9441;51.420;7.036;2022-10-16T01:09:17;10.53;;;2.90;;
18623;SDS011;9441;51.420;7.036;2022-10-16T01:10:23;7.90;;;2.30;;
18623;SDS011;9441;51.420;7.036;2022-10-16T01:11:32;10.20;;;2.50;;
18623;SDS011;9441;51.420;7.036;2022-10-16T01:12:40;7.27;;;2.50;;
18623;SDS011;9441;51.420;7.036;2022-10-16T01:13:46;10.47;;;3.00;;
18623;SDS011;9441;51.420;7.036;2022-10-16T01:14:52;8.03;;;2.40;;
18623;SDS011;9441;51.420;7.036;2022-10-16T01:15:59;10.40;;;2.20;;
18623;SDS011;9441;51.420;7.036;2022-10-16T01:17:08;8.07;;;2.37;;
18623;SDS011;9441;51.420;7.036;2022-10-16T01:18:14;13.00;;;2.70;;
18623;SDS011;9441;51.420;7.036;2022-10-16T01:19:20;7.97;;;2.50;;
18623;SDS011;9441;51.420;7.036;2022-10-16T01:20:37;4.03;;;2.17;;
18623;SDS011;9441;51.420;7.036;2022-10-16T01:21:44;15.97;;;2.67;;
18623;SDS011;9441;51.420;7.036;2022-10-16T01:22:54;15.53;;;3.57;;
18623;SDS011;9441;51.420;7.036;2022-10-16T01:24:03;9.60;;;2.47;;
18623;SDS011;9441;51.420;7.036;2022-10-16T01:25:15;8.23;;;3.00;;
18623;SDS011;9441;51.420;7.036;2022-10-16T01:26:24;5.67;;;2.53;;
18623;SDS011;9441;51.420;7.036;2022-10-16T01:27:38;7.17;;;2.30;;
18623;SDS011;9441;51.420;7.036;2022-10-16T01:28:43;4.47;;;2.40;;
18623;SDS011;9441;51.420;7.036;2022-10-16T01:29:53;8.90;;;2.30;;
18623;SDS011;9441;51.420;7.036;2022-10-16T01:30:58;7.47;;;2.20;;
18623;SDS011;9441;51.420;7.036;2022-10-16T01:32:04;6.97;;;2.80;;
18623;SDS011;9441;51.420;7.036;2022-10-16T01:33:12;5.90;;;2.20;;
18623;SDS011;9441;51.420;7.036;2022-10-16T01:34:18;8.67;;;3.07;;
18623;SDS011;9441;51.420;7.036;2022-10-16T01:35:26;10.90;;;2.97;;
18623;SDS011;9441;51.420;7.036;2022-10-16T01:36:33;5.20;;;2.30;;
18623;SDS011;9441;51.420;7.036;2022-10-16T01:37:39;6.00;;;2.40;;
18623;SDS011;9441;51.420;7.036;2022-10-16T01:38:44;5.00;;;2.27;;
18623;SDS011;9441;51.420;7.036;2022-10-16T01:39:50;3.60;;;2.47;;
18623;SDS011;9441;51.420;7.036;2022-10-16T01:40:56;12.87;;;2.30;;
18623;SDS011;9441;51.420;7.036;2022-10-16T01:42:03;8.37;;;2.57;;
18623;SDS011;9441;51.420;7.036;2022-10-16T01:43:10;33.07;;;2.60;;
18623;SDS011;9441;51.420;7.036;2022-10-16T01:44:16;16.03;;;2.77;;
18623;SDS011;9441;51.420;7.036;2022-10-16T01:45:23;12.03;;;2.40;;
18623;SDS011;9441;51.420;7.036;2022-10-16T01:46:24;5.20;;;2.53;;
18623;SDS011;9441;51.420;7.036;2022-10-16T01:47:27;8.20;;;2.20;;
18623;SDS011;9441;51.420;7.036;2022-10-16T01:48:31;3.53;;;2.40;;
18623;SDS011;9441;51.420;7.036;2022-10-16T01:49:36;8.30;;;2.23;;
18623;SDS011;9441;51.420;7.036;2022-10-16T01:50:39;5.73;;;2.20;;
18623;SDS011;9441;51.420;7.036;2022-10-16T01:51:44;10.50;;;2.63;;
18623;SDS011;9441;51.420;7.036;2022-10-16T01:52:49;6.30;;;2.30;;
18623;SDS011;9441;51.420;7.036;2022-10-16T01:53:54;6.73;;;2.60;;
18623;SDS011;9441;51.420;7.036;2022-10-16T01:54:58;4.43;;;2.40;;
18623;SDS011;9441;51.420;7.036;2022-10-16T01:56:05;9.07;;;2.37;;
18623;SDS011;9441;51.420;7.036;2022-10-16T01:57:09;3.37;;;2.20;;
18623;SDS011;9441;51.420;7.036;2022-10-16T01:58:15;7.60;;;2.40;;
18623;SDS011;9441;51.420;7.036;2022-10-16T01:59:16;4.37;;;2.20;;
18623;SDS011;9441;51.420;7.036;2022-10-16T02:00:22;5.00;;;2.33;;
18623;SDS011;9441;51.420;7.036;2022-10-16T02:01:24;13.77;;;2.30;;
18623;SDS011;9441;51.420;7.036;2022-10-16T02:02:29;3.33;;;2.20;;
18623;SDS011;9441;51.420;7.036;2022-10-16T02:03:31;7.77;;;2.30;;
18623;SDS011;9441;51.420;7.036;2022-10-16T02:04:36;6.10;;;2.03;;
18623;SDS011;9441;51.420;7.036;2022-10-16T02:05:39;9.07;;;2.70;;
18623;SDS011;9441;51.420;7.036;2022-10-16T02:06:44;6.47;;;2.50;;
18623;SDS011;9441;51.420;7.036;2022-10-16T02:07:45;8.97;;;2.27;;
18623;SDS011;9441;51.420;7.036;2022-10-16T02:08:47;7.83;;;2.33;;
18623;SDS011;9441;51.420;7.036;2022-10-16T02:09:48;7.77;;;2.40;;
18623;SDS011;9441;51.420;7.036;2022-10-16T02:10:50;2.73;;;2.10;;
18623;SDS011;9441;51.420;7.036;2022-10-16T02:11:52;9.60;;;2.70;;
18623;SDS011;9441;51.420;7.036;2022-10-16T02:12:58;5.10;;;2.50;;
18623;SDS011;9441;51.420;7.036;2022-10-16T02:14:04;3.60;;;2.33;;
18623;SDS011;9441;51.420;7.036;2022-10-16T02:15:08;3.73;;;2.73;;
18623;SDS011;9441;51.420;7.036;2022-10-16T02:16:09;5.73;;;2.37;;
18623;SDS011;9441;51.420;7.036;2022-10-16T02:17:13;4.13;;;1.93;;
18623;SDS011;9441;51.420;7.036;2022-10-16T02:18:24;6.77;;;2.63;;
18623;SDS011;9441;51.420;7.036;2022-10-16T02:20:28;7.07;;;2.13;;
18623;SDS011;9441;51.420;7.036;2022-10-16T02:22:23;3.33;;;2.30;;
18623;SDS011;9441;51.420;7.036;2022-10-16T02:23:48;3.00;;;2.30;;
18623;SDS011;9441;51.420;7.036;2022-10-16T02:24:56;4.63;;;2.77;;
18623;SDS011;9441;51.420;7.036;2022-10-16T02:26:00;9.53;;;2.20;;
18623;SDS011;9441;51.420;7.036;2022-10-16T02:27:06;9.97;;;2.70;;
18623;SDS011;9441;51.420;7.036;2022-10-16T02:28:13;5.70;;;2.37;;
18623;SDS011;9441;51.420;7.036;2022-10-16T02:29:20;5.27;;;1.97;;
18623;SDS011;9441;51.420;7.036;2022-10-16T02:30:27;4.47;;;2.07;;
18623;SDS011;9441;51.420;7.036;2022-10-16T02:31:34;4.37;;;2.43;;
18623;SDS011;9441;51.420;7.036;2022-10-16T02:32:40;3.17;;;2.67;;
18623;SDS011;9441;51.420;7.036;2022-10-16T02:33:45;4.80;;;1.93;;
18623;SDS011;9441;51.420;7.036;2022-10-16T02:34:48;7.73;;;2.13;;
18623;SDS011;9441;51.420;7.036;2022-10-16T02:35:50;7.23;;;2.50;;
18623;SDS011;9441;51.420;7.036;2022-10-16T02:36:53;3.40;;;2.10;;
18623;SDS011;9441;51.420;7.036;2022-10-16T02:37:55;4.47;;;2.37;;
18623;SDS011;9441;51.420;7.036;2022-10-16T02:38:58;5.43;;;2.33;;
18623;SDS011;9441;51.420;7.036;2022-10-16T02:40:00;3.27;;;2.03;;
18623;SDS011;9441;51.420;7.036;2022-10-16T02:41:03;9.47;;;2.20;;
18623;SDS011;9441;51.420;7.036;2022-10-16T02:42:09;3.57;;;2.20;;
18623;SDS011;9441;51.420;7.036;2022-10-16T02:43:11;6.23;;;1.93;;
18623;SDS011;9441;51.420;7.036;2022-10-16T02:44:12;5.57;;;2.43;;
18623;SDS011;9441;51.420;7.036;2022-10-16T02:45:16;6.63;;;2.40;;
18623;SDS011;9441;51.420;7.036;2022-10-16T02:46:17;4.07;;;2.30;;
18623;SDS011;9441;51.420;7.036;2022-10-16T02:47:20;8.53;;;2.10;;
18623;SDS011;9441;51.420;7.036;2022-10-16T02:48:21;2.83;;;2.20;;
18623;SDS011;9441;51.420;7.036;2022-10-16T02:49:23;4.30;;;2.23;;
18623;SDS011;9441;51.420;7.036;2022-10-16T02:50:24;3.77;;;2.33;;
18623;SDS011;9441;51.420;7.036;2022-10-16T02:51:26;2.53;;;2.27;;
18623;SDS011;9441;51.420;7.036;2022-10-16T02:52:27;3.60;;;2.40;;
18623;SDS011;9441;51.420;7.036;2022-10-16T02:53:29;2.60;;;2.23;;
18623;SDS011;9441;51.420;7.036;2022-10-16T02:54:30;4.93;;;2.50;;
18623;SDS011;9441;51.420;7.036;2022-10-16T02:55:32;7.33;;;2.43;;
18623;SDS011;9441;51.420;7.036;2022-10-16T02:56:33;4.87;;;2.33;;
18623;SDS011;9441;51.420;7.036;2022-10-16T02:57:35;6.37;;;2.40;;
18623;SDS011;9441;51.420;7.036;2022-10-16T02:58:37;5.70;;;2.30;;
18623;SDS011;9441;51.420;7.036;2022-10-16T02:59:39;7.30;;;2.13;;
18623;SDS011;9441;51.420;7.036;2022-10-16T03:00:41;5.27;;;2.30;;
18623;SDS011;9441;51.420;7.036;2022-10-16T03:01:43;2.57;;;2.30;;
18623;SDS011;9441;51.420;7.036;2022-10-16T03:02:44;2.33;;;2.10;;
18623;SDS011;9441;51.420;7.036;2022-10-16T03:03:46;3.80;;;2.17;;
18623;SDS011;9441;51.420;7.036;2022-10-16T03:04:47;4.30;;;2.10;;
18623;SDS011;9441;51.420;7.036;2022-10-16T03:05:49;3.37;;;2.30;;
18623;SDS011;9441;51.420;7.036;2022-10-16T03:06:50;4.00;;;1.97;;
18623;SDS011;9441;51.420;7.036;2022-10-16T03:07:52;2.47;;;2.07;;
18623;SDS011;9441;51.420;7.036;2022-10-16T03:08:53;3.70;;;2.10;;
18623;SDS011;9441;51.420;7.036;2022-10-16T03:09:55;4.03;;;2.00;;
18623;SDS011;9441;51.420;7.036;2022-10-16T03:10:57;3.40;;;2.00;;
18623;SDS011;9441;51.420;7.036;2022-10-16T03:12:02;4.47;;;2.10;;
18623;SDS011;9441;51.420;7.036;2022-10-16T03:13:03;3.30;;;1.97;;
18623;SDS011;9441;51.420;7.036;2022-10-16T03:14:05;7.10;;;2.30;;
18623;SDS011;9441;51.420;7.036;2022-10-16T03:15:07;6.03;;;2.20;;
18623;SDS011;9441;51.420;7.036;2022-10-16T03:16:11;4.37;;;2.40;;
18623;SDS011;9441;51.420;7.036;2022-10-16T03:17:12;4.07;;;2.50;;
18623;SDS011;9441;51.420;7.036;2022-10-16T03:18:16;5.20;;;2.40;;
18623;SDS011;9441;51.420;7.036;2022-10-16T03:19:18;2.33;;;1.70;;
18623;SDS011;9441;51.420;7.036;2022-10-16T03:20:20;2.30;;;2.10;;
18623;SDS011;9441;51.420;7.036;2022-10-16T03:21:21;3.23;;;1.90;;
18623;SDS011;9441;51.420;7.036;2022-10-16T03:22:23;2.70;;;2.03;;
18623;SDS011;9441;51.420;7.036;2022-10-16T03:23:24;2.30;;;2.10;;
18623;SDS011;9441;51.420;7.036;2022-10-16T03:24:26;3.20;;;2.10;;
18623;SDS011;9441;51.420;7.036;2022-10-16T03:25:27;1.80;;;1.70;;
18623;SDS011;9441;51.420;7.036;2022-10-16T03:26:29;3.03;;;2.13;;
18623;SDS011;9441;51.420;7.036;2022-10-16T03:27:30;6.50;;;2.20;;
18623;SDS011;9441;51.420;7.036;2022-10-16T03:28:32;3.83;;;2.37;;
18623;SDS011;9441;51.420;7.036;2022-10-16T03:29:33;2.47;;;1.90;;
18623;SDS011;9441;51.420;7.036;2022-10-16T03:30:35;2.30;;;2.10;;
18623;SDS011;9441;51.420;7.036;2022-10-16T03:31:38;4.90;;;2.10;;
18623;SDS011;9441;51.420;7.036;2022-10-16T03:32:40;3.07;;;1.90;;
18623;SDS011;9441;51.420;7.036;2022-10-16T03:33:41;2.83;;;1.93;;
18623;SDS011;9441;51.420;7.036;2022-10-16T03:34:43;3.03;;;2.00;;
18623;SDS011;9441;51.420;7.036;2022-10-16T03:35:50;4.90;;;2.00;;
18623;SDS011;9441;51.420;7.036;2022-10-16T03:36:53;2.90;;;2.00;;
18623;SDS011;9441;51.420;7.036;2022-10-16T03:37:55;2.60;;;1.93;;
18623;SDS011;9441;51.420;7.036;2022-10-16T03:38:56;3.23;;;2.00;;
18623;SDS011;9441;51.420;7.036;2022-10-16T03:39:58;3.47;;;2.10;;
18623;SDS011;9441;51.420;7.036;2022-10-16T03:40:59;2.10;;;1.90;;
18623;SDS011;9441;51.420;7.036;2022-10-16T03:42:01;3.30;;;1.97;;
18623;SDS011;9441;51.420;7.036;2022-10-16T03:43:03;2.83;;;1.83;;
18623;SDS011;9441;51.420;7.036;2022-10-16T03:44:05;2.67;;;2.10;;
18623;SDS011;9441;51.420;7.036;2022-10-16T03:45:06;4.03;;;2.00;;
18623;SDS011;9441;51.420;7.036;2022-10-16T03:46:08;4.47;;;1.87;;
18623;SDS011;9441;51.420;7.036;2022-10-16T03:47:11;3.83;;;2.10;;
18623;SDS011;9441;51.420;7.036;2022-10-16T03:48:13;3.10;;;2.20;;
18623;SDS011;9441;51.420;7.036;2022-10-16T03:49:14;4.03;;;2.23;;
18623;SDS011;9441;51.420;7.036;2022-10-16T03:50:16;12.03;;;2.53;;
18623;SDS011;9441;51.420;7.036;2022-10-16T03:51:17;3.77;;;2.20;;
18623;SDS011;9441;51.420;7.036;2022-10-16T03:52:19;4.07;;;2.20;;
18623;SDS011;9441;51.420;7.036;2022-10-16T03:53:20;2.87;;;2.00;;
18623;SDS011;9441;51.420;7.036;2022-10-16T03:54:22;4.47;;;2.10;;
18623;SDS011;9441;51.420;7.036;2022-10-16T03:55:23;3.70;;;2.27;;
18623;SDS011;9441;51.420;7.036;2022-10-16T03:56:25;3.50;;;2.10;;
18623;SDS011;9441;51.420;7.036;2022-10-16T03:57:26;3.27;;;2.23;;
18623;SDS011;9441;51.420;7.036;2022-10-16T03:58:28;8.13;;;2.27;;
18623;SDS011;9441;51.420;7.036;2022-10-16T03:59:29;2.57;;;2.10;;
18623;SDS011;9441;51.420;7.036;2022-10-16T04:00:31;5.03;;;2.10;;
18623;SDS011;9441;51.420;7.036;2022-10-16T04:01:32;3.80;;;2.07;;
18623;SDS011;9441;51.420;7.036;2022-10-16T04:02:36;2.77;;;2.10;;
18623;SDS011;9441;51.420;7.036;2022-10-16T04:03:37;7.93;;;2.23;;
18623;SDS011;9441;51.420;7.036;2022-10-16T04:04:39;5.60;;;2.00;;
18623;SDS011;9441;51.420;7.036;2022-10-16T04:05:40;2.50;;;2.13;;
18623;SDS011;9441;51.420;7.036;2022-10-16T04:06:42;3.53;;;1.80;;
18623;SDS011;9441;51.420;7.036;2022-10-16T04:07:43;4.00;;;2.03;;
18623;SDS011;9441;51.420;7.036;2022-10-16T04:08:45;7.63;;;1.80;;
18623;SDS011;9441;51.420;7.036;2022-10-16T04:09:46;3.90;;;2.20;;
18623;SDS011;9441;51.420;7.036;2022-10-16T04:10:48;4.47;;;2.30;;
18623;SDS011;9441;51.420;7.036;2022-10-16T04:11:49;4.40;;;2.03;;
18623;SDS011;9441;51.420;7.036;2022-10-16T04:12:51;4.67;;;2.13;;
18623;SDS011;9441;51.420;7.036;2022-10-16T04:13:54;3.20;;;2.20;;
18623;SDS011;9441;51.420;7.036;2022-10-16T04:14:56;2.80;;;2.17;;
18623;SDS011;9441;51.420;7.036;2022-10-16T04:15:57;5.03;;;1.80;;
18623;SDS011;9441;51.420;7.036;2022-10-16T04:16:59;3.43;;;2.23;;
18623;SDS011;9441;51.420;7.036;2022-10-16T04:18:02;2.87;;;2.10;;
18623;SDS011;9441;51.420;7.036;2022-10-16T04:19:04;2.60;;;2.10;;
18623;SDS011;9441;51.420;7.036;2022-10-16T04:20:05;4.27;;;2.13;;
18623;SDS011;9441;51.420;7.036;2022-10-16T04:21:08;5.13;;;1.97;;
18623;SDS011;9441;51.420;7.036;2022-10-16T04:22:09;4.50;;;2.10;;
18623;SDS011;9441;51.420;7.036;2022-10-16T04:23:11;3.33;;;2.17;;
18623;SDS011;9441;51.420;7.036;2022-10-16T04:24:13;2.53;;;2.00;;
18623;SDS011;9441;51.420;7.036;2022-10-16T04:25:14;2.67;;;2.03;;
18623;SDS011;9441;51.420;7.036;2022-10-16T04:26:16;7.63;;;2.23;;
18623;SDS011;9441;51.420;7.036;2022-10-16T04:27:17;3.47;;;2.00;;
18623;SDS011;9441;51.420;7.036;2022-10-16T04:28:19;2.73;;;1.97;;
18623;SDS011;9441;51.420;7.036;2022-10-16T04:29:20;10.77;;;2.10;;
18623;SDS011;9441;51.420;7.036;2022-10-16T04:30:22;9.20;;;2.17;;
18623;SDS011;9441;51.420;7.036;2022-10-16T04:31:24;9.23;;;2.33;;
18623;SDS011;9441;51.420;7.036;2022-10-16T04:32:26;5.97;;;2.10;;
18623;SDS011;9441;51.420;7.036;2022-10-16T04:33:29;2.80;;;2.10;;
18623;SDS011;9441;51.420;7.036;2022-10-16T04:34:30;3.20;;;2.13;;
18623;SDS011;9441;51.420;7.036;2022-10-16T04:35:31;5.03;;;1.80;;
18623;SDS011;9441;51.420;7.036;2022-10-16T04:36:33;4.73;;;2.20;;
18623;SDS011;9441;51.420;7.036;2022-10-16T04:37:34;3.33;;;2.00;;
18623;SDS011;9441;51.420;7.036;2022-10-16T04:38:42;2.67;;;2.17;;
18623;SDS011;9441;51.420;7.036;2022-10-16T04:40:28;3.57;;;2.20;;
18623;SDS011;9441;51.420;7.036;2022-10-16T04:41:59;4.43;;;2.23;;
18623;SDS011;9441;51.420;7.036;2022-10-16T04:43:00;2.53;;;2.30;;
18623;SDS011;9441;51.420;7.036;2022-10-16T04:44:03;5.87;;;2.10;;
18623;SDS011;9441;51.420;7.036;2022-10-16T04:45:05;4.33;;;2.27;;
18623;SDS011;9441;51.420;7.036;2022-10-16T04:46:08;3.77;;;2.07;;
18623;SDS011;9441;51.420;7.036;2022-10-16T04:47:10;2.53;;;2.20;;
18623;SDS011;9441;51.420;7.036;2022-10-16T04:48:12;8.10;;;2.30;;
18623;SDS011;9441;51.420;7.036;2022-10-16T04:49:15;2.90;;;2.20;;
18623;SDS011;9441;51.420;7.036;2022-10-16T04:50:17;5.23;;;2.10;;
18623;SDS011;9441;51.420;7.036;2022-10-16T04:51:35;4.30;;;2.10;;
18623;SDS011;9441;51.420;7.036;2022-10-16T04:52:37;5.13;;;2.17;;
18623;SDS011;9441;51.420;7.036;2022-10-16T04:53:38;3.43;;;1.90;;
18623;SDS011;9441;51.420;7.036;2022-10-16T04:54:40;2.47;;;2.00;;
18623;SDS011;9441;51.420;7.036;2022-10-16T04:55:41;6.37;;;2.33;;
18623;SDS011;9441;51.420;7.036;2022-10-16T04:56:43;3.10;;;2.17;;
18623;SDS011;9441;51.420;7.036;2022-10-16T04:57:47;2.87;;;2.33;;
18623;SDS011;9441;51.420;7.036;2022-10-16T04:58:49;4.23;;;2.17;;
18623;SDS011;9441;51.420;7.036;2022-10-16T04:59:50;3.70;;;2.10;;
18623;SDS011;9441;51.420;7.036;2022-10-16T05:00:52;2.60;;;2.00;;
18623;SDS011;9441;51.420;7.036;2022-10-16T05:01:53;2.50;;;2.30;;
18623;SDS011;9441;51.420;7.036;2022-10-16T05:02:55;2.57;;;2.00;;
18623;SDS011;9441;51.420;7.036;2022-10-16T05:03:57;4.23;;;2.10;;
18623;SDS011;9441;51.420;7.036;2022-10-16T05:05:01;3.83;;;2.10;;
18623;SDS011;9441;51.420;7.036;2022-10-16T05:06:02;9.60;;;2.70;;
18623;SDS011;9441;51.420;7.036;2022-10-16T05:07:06;6.73;;;2.27;;
18623;SDS011;9441;51.420;7.036;2022-10-16T05:08:07;6.90;;;2.67;;
18623;SDS011;9441;51.420;7.036;2022-10-16T05:09:09;3.27;;;2.50;;
18623;SDS011;9441;51.420;7.036;2022-10-16T05:10:11;3.10;;;2.07;;
18623;SDS011;9441;51.420;7.036;2022-10-16T05:11:13;4.50;;;2.20;;
18623;SDS011;9441;51.420;7.036;2022-10-16T05:12:14;4.90;;;1.97;;
18623;SDS011;9441;51.420;7.036;2022-10-16T05:13:16;4.57;;;2.20;;
18623;SDS011;9441;51.420;7.036;2022-10-16T05:14:17;2.60;;;2.40;;
18623;SDS011;9441;51.420;7.036;2022-10-16T05:15:19;4.43;;;2.20;;
18623;SDS011;9441;51.420;7.036;2022-10-16T05:16:20;4.90;;;2.13;;
18623;SDS011;9441;51.420;7.036;2022-10-16T05:17:22;3.57;;;1.90;;
18623;SDS011;9441;51.420;7.036;2022-10-16T05:18:24;3.80;;;2.40;;
18623;SDS011;9441;51.420;7.036;2022-10-16T05:19:26;2.80;;;2.00;;
18623;SDS011;9441;51.420;7.036;2022-10-16T05:20:28;4.40;;;2.30;;
18623;SDS011;9441;51.420;7.036;2022-10-16T05:21:30;3.30;;;2.03;;
18623;SDS011;9441;51.420;7.036;2022-10-16T05:22:31;4.67;;;2.07;;
18623;SDS011;9441;51.420;7.036;2022-10-16T05:23:33;6.07;;;2.20;;
18623;SDS011;9441;51.420;7.036;2022-10-16T05:24:34;4.17;;;2.20;;
18623;SDS011;9441;51.420;7.036;2022-10-16T05:25:36;3.33;;;2.30;;
18623;SDS011;9441;51.420;7.036;2022-10-16T05:26:37;7.93;;;2.30;;
18623;SDS011;9441;51.420;7.036;2022-10-16T05:27:39;4.77;;;2.43;;
18623;SDS011;9441;51.420;7.036;2022-10-16T05:28:41;5.70;;;2.13;;
18623;SDS011;9441;51.420;7.036;2022-10-16T05:29:42;2.73;;;2.10;;
18623;SDS011;9441;51.420;7.036;2022-10-16T05:30:45;3.13;;;2.07;;
18623;SDS011;9441;51.420;7.036;2022-10-16T05:31:46;5.93;;;2.37;;
18623;SDS011;9441;51.420;7.036;2022-10-16T05:32:48;2.47;;;2.23;;
18623;SDS011;9441;51.420;7.036;2022-10-16T05:33:49;6.93;;;2.47;;
18623;SDS011;9441;51.420;7.036;2022-10-16T05:34:51;2.80;;;1.97;;
18623;SDS011;9441;51.420;7.036;2022-10-16T05:35:54;4.43;;;2.00;;
18623;SDS011;9441;51.420;7.036;2022-10-16T05:36:56;8.57;;;2.20;;
18623;SDS011;9441;51.420;7.036;2022-10-16T05:37:57;3.00;;;1.93;;
18623;SDS011;9441;51.420;7.036;2022-10-16T05:38:59;4.63;;;2.10;;
18623;SDS011;9441;51.420;7.036;2022-10-16T05:40:00;5.23;;;2.20;;
18623;SDS011;9441;51.420;7.036;2022-10-16T05:41:05;2.87;;;2.10;;
18623;SDS011;9441;51.420;7.036;2022-10-16T05:42:06;3.20;;;2.30;;
18623;SDS011;9441;51.420;7.036;2022-10-16T05:43:08;5.63;;;2.10;;
18623;SDS011;9441;51.420;7.036;2022-10-16T05:44:09;3.43;;;2.03;;
18623;SDS011;9441;51.420;7.036;2022-10-16T05:45:12;3.43;;;2.20;;
18623;SDS011;9441;51.420;7.036;2022-10-16T05:46:13;3.83;;;2.20;;
18623;SDS011;9441;51.420;7.036;2022-10-16T05:47:16;3.80;;;2.27;;
18623;SDS011;9441;51.420;7.036;2022-10-16T05:48:17;2.13;;;1.93;;
18623;SDS011;9441;51.420;7.036;2022-10-16T05:49:19;5.50;;;2.10;;
18623;SDS011;9441;51.420;7.036;2022-10-16T05:50:20;6.00;;;2.33;;
18623;SDS011;9441;51.420;7.036;2022-10-16T05:51:23;2.67;;;1.90;;
18623;SDS011;9441;51.420;7.036;2022-10-16T05:52:24;4.07;;;1.97;;
18623;SDS011;9441;51.420;7.036;2022-10-16T05:53:27;2.53;;;2.33;;
18623;SDS011;9441;51.420;7.036;2022-10-16T05:54:29;2.53;;;2.10;;
18623;SDS011;9441;51.420;7.036;2022-10-16T05:55:31;5.33;;;2.40;;
18623;SDS011;9441;51.420;7.036;2022-10-16T05:56:32;2.43;;;1.90;;
18623;SDS011;9441;51.420;7.036;2022-10-16T05:57:34;4.40;;;2.60;;
18623;SDS011;9441;51.420;7.036;2022-10-16T05:58:36;8.63;;;2.40;;
18623;SDS011;9441;51.420;7.036;2022-10-16T05:59:40;6.90;;;2.27;;
18623;SDS011;9441;51.420;7.036;2022-10-16T06:00:41;4.00;;;2.33;;
18623;SDS011;9441;51.420;7.036;2022-10-16T06:01:43;5.57;;;2.13;;
18623;SDS011;9441;51.420;7.036;2022-10-16T06:02:44;4.90;;;2.43;;
18623;SDS011;9441;51.420;7.036;2022-10-16T06:03:46;4.50;;;2.57;;
18623;SDS011;9441;51.420;7.036;2022-10-16T06:04:47;5.30;;;2.40;;
18623;SDS011;9441;51.420;7.036;2022-10-16T06:05:49;4.20;;;2.80;;
18623;SDS011;9441;51.420;7.036;2022-10-16T06:06:52;2.67;;;2.03;;
18623;SDS011;9441;51.420;7.036;2022-10-16T06:07:54;6.70;;;2.20;;
18623;SDS011;9441;51.420;7.036;2022-10-16T06:08:55;4.37;;;2.10;;
18623;SDS011;9441;51.420;7.036;2022-10-16T06:09:58;4.93;;;2.33;;
18623;SDS011;9441;51.420;7.036;2022-10-16T06:11:02;6.50;;;2.20;;
18623;SDS011;9441;51.420;7.036;2022-10-16T06:12:04;4.30;;;2.23;;
18623;SDS011;9441;51.420;7.036;2022-10-16T06:13:05;5.43;;;2.50;;
18623;SDS011;9441;51.420;7.036;2022-10-16T06:14:07;5.07;;;2.30;;
18623;SDS011;9441;51.420;7.036;2022-10-16T06:15:10;4.10;;;2.40;;
18623;SDS011;9441;51.420;7.036;2022-10-16T06:16:13;2.57;;;2.10;;
18623;SDS011;9441;51.420;7.036;2022-10-16T06:17:14;5.87;;;2.33;;
18623;SDS011;9441;51.420;7.036;2022-10-16T06:18:16;7.10;;;2.20;;
18623;SDS011;9441;51.420;7.036;2022-10-16T06:19:17;3.00;;;2.20;;
18623;SDS011;9441;51.420;7.036;2022-10-16T06:20:19;5.10;;;2.23;;
18623;SDS011;9441;51.420;7.036;2022-10-16T06:21:21;2.60;;;2.40;;
18623;SDS011;9441;51.420;7.036;2022-10-16T06:22:26;6.87;;;2.47;;
18623;SDS011;9441;51.420;7.036;2022-10-16T06:23:28;3.27;;;2.13;;
18623;SDS011;9441;51.420;7.036;2022-10-16T06:24:30;5.13;;;2.47;;
18623;SDS011;9441;51.420;7.036;2022-10-16T06:25:32;2.50;;;2.20;;
18623;SDS011;9441;51.420;7.036;2022-10-16T06:26:33;2.63;;;2.03;;
18623;SDS011;9441;51.420;7.036;2022-10-16T06:27:35;2.80;;;2.40;;
18623;SDS011;9441;51.420;7.036;2022-10-16T06:28:36;5.20;;;2.60;;